sensor_id;sensor_type;location;lat;lon;timestamp;P1;durP1;ratioP1;P2;durP2;ratioP2
16693;SDS011;39538;52.196;9.892;2022-10-20T00:02:10;5.37;;;3.60;;
16693;SDS011;39538;52.196;9.892;2022-10-20T00:04:38;4.83;;;4.07;;
16693;SDS011;39538;52.196;9.892;2022-10-20T00:07:05;5.40;;;4.13;;
16693;SDS011;39538;52.196;9.892;2022-10-20T00:09:31;7.87;;;5.87;;
16693;SDS011;39538;52.196;9.892;2022-10-20T00:11:58;5.97;;;4.87;;
16693;SDS011;39538;52.196;9.892;2022-10-20T00:14:24;4.70;;;4.20;;
16693;SDS011;39538;52.196;9.892;2022-10-20T00:16:51;5.50;;;4.90;;
16693;SDS011;39538;52.196;9.892;2022-10-20T00:19:17;5.47;;;4.13;;
16693;SDS011;39538;52.196;9.892;2022-10-20T00:21:45;6.10;;;4.50;;
16693;SDS011;39538;52.196;9.892;2022-10-20T00:24:12;5.40;;;4.90;;
16693;SDS011;39538;52.196;9.892;2022-10-20T00:26:38;4.10;;;3.50;;
16693;SDS011;39538;52.196;9.892;2022-10-20T00:29:05;5.60;;;4.30;;
16693;SDS011;39538;52.196;9.892;2022-10-20T00:31:32;7.13;;;3.93;;
16693;SDS011;39538;52.196;9.892;2022-10-20T00:33:58;3.63;;;3.33;;
16693;SDS011;39538;52.196;9.892;2022-10-20T00:36:25;7.13;;;3.40;;
16693;SDS011;39538;52.196;9.892;2022-10-20T00:38:56;5.27;;;3.93;;
16693;SDS011;39538;52.196;9.892;2022-10-20T00:41:24;4.60;;;4.20;;
16693;SDS011;39538;52.196;9.892;2022-10-20T00:43:52;5.07;;;4.57;;
16693;SDS011;39538;52.196;9.892;2022-10-20T00:46:21;7.33;;;4.53;;
16693;SDS011;39538;52.196;9.892;2022-10-20T00:48:50;5.60;;;4.27;;
16693;SDS011;39538;52.196;9.892;2022-10-20T00:51:19;3.93;;;3.57;;
16693;SDS011;39538;52.196;9.892;2022-10-20T00:53:49;6.40;;;3.47;;
16693;SDS011;39538;52.196;9.892;2022-10-20T00:56:19;7.73;;;3.47;;
16693;SDS011;39538;52.196;9.892;2022-10-20T00:58:47;4.57;;;3.57;;
16693;SDS011;39538;52.196;9.892;2022-10-20T01:01:15;7.27;;;4.67;;
16693;SDS011;39538;52.196;9.892;2022-10-20T01:03:44;7.10;;;3.43;;
16693;SDS011;39538;52.196;9.892;2022-10-20T01:06:13;5.17;;;4.53;;
16693;SDS011;39538;52.196;9.892;2022-10-20T01:08:41;4.27;;;3.83;;
16693;SDS011;39538;52.196;9.892;2022-10-20T01:11:13;5.67;;;3.90;;
16693;SDS011;39538;52.196;9.892;2022-10-20T01:13:48;5.33;;;2.90;;
16693;SDS011;39538;52.196;9.892;2022-10-20T01:16:25;5.63;;;4.10;;
16693;SDS011;39538;52.196;9.892;2022-10-20T01:19:01;5.93;;;3.90;;
16693;SDS011;39538;52.196;9.892;2022-10-20T01:21:46;6.10;;;4.03;;
16693;SDS011;39538;52.196;9.892;2022-10-20T01:27:28;4.27;;;3.87;;
16693;SDS011;39538;52.196;9.892;2022-10-20T01:30:07;5.27;;;4.27;;
16693;SDS011;39538;52.196;9.892;2022-10-20T01:32:41;5.77;;;4.50;;
16693;SDS011;39538;52.196;9.892;2022-10-20T01:35:22;4.37;;;3.77;;
16693;SDS011;39538;52.196;9.892;2022-10-20T01:37:59;5.73;;;5.13;;
16693;SDS011;39538;52.196;9.892;2022-10-20T01:40:33;4.83;;;4.53;;
16693;SDS011;39538;52.196;9.892;2022-10-20T01:43:08;6.43;;;5.47;;
16693;SDS011;39538;52.196;9.892;2022-10-20T01:45:38;5.63;;;5.00;;
16693;SDS011;39538;52.196;9.892;2022-10-20T01:48:08;6.43;;;5.70;;
16693;SDS011;39538;52.196;9.892;2022-10-20T01:50:37;5.40;;;4.90;;
16693;SDS011;39538;52.196;9.892;2022-10-20T01:53:05;6.57;;;5.87;;
16693;SDS011;39538;52.196;9.892;2022-10-20T01:55:32;5.80;;;5.30;;
16693;SDS011;39538;52.196;9.892;2022-10-20T01:58:09;6.90;;;6.23;;
16693;SDS011;39538;52.196;9.892;2022-10-20T02:00:45;7.70;;;5.47;;
16693;SDS011;39538;52.196;9.892;2022-10-20T02:03:18;8.10;;;7.37;;
16693;SDS011;39538;52.196;9.892;2022-10-20T02:05:59;9.97;;;4.80;;
16693;SDS011;39538;52.196;9.892;2022-10-20T02:08:36;7.37;;;6.77;;
16693;SDS011;39538;52.196;9.892;2022-10-20T02:11:09;7.60;;;4.73;;
16693;SDS011;39538;52.196;9.892;2022-10-20T02:13:43;8.43;;;6.30;;
16693;SDS011;39538;52.196;9.892;2022-10-20T02:16:12;7.17;;;5.30;;
16693;SDS011;39538;52.196;9.892;2022-10-20T02:18:43;8.33;;;5.43;;
16693;SDS011;39538;52.196;9.892;2022-10-20T02:21:11;5.87;;;5.33;;
16693;SDS011;39538;52.196;9.892;2022-10-20T02:23:39;4.80;;;3.97;;
16693;SDS011;39538;52.196;9.892;2022-10-20T02:26:11;5.57;;;5.07;;
16693;SDS011;39538;52.196;9.892;2022-10-20T02:28:39;8.70;;;4.37;;
16693;SDS011;39538;52.196;9.892;2022-10-20T02:31:12;4.53;;;4.13;;
16693;SDS011;39538;52.196;9.892;2022-10-20T02:33:39;5.20;;;4.80;;
16693;SDS011;39538;52.196;9.892;2022-10-20T02:36:10;7.23;;;4.57;;
16693;SDS011;39538;52.196;9.892;2022-10-20T02:38:38;6.97;;;3.43;;
16693;SDS011;39538;52.196;9.892;2022-10-20T02:41:05;13.67;;;4.47;;
16693;SDS011;39538;52.196;9.892;2022-10-20T02:43:31;6.53;;;3.73;;
16693;SDS011;39538;52.196;9.892;2022-10-20T02:45:59;5.03;;;4.73;;
16693;SDS011;39538;52.196;9.892;2022-10-20T02:48:26;6.60;;;4.90;;
16693;SDS011;39538;52.196;9.892;2022-10-20T02:50:53;4.57;;;3.83;;
16693;SDS011;39538;52.196;9.892;2022-10-20T02:53:19;5.17;;;4.67;;
16693;SDS011;39538;52.196;9.892;2022-10-20T02:55:46;9.20;;;4.53;;
16693;SDS011;39538;52.196;9.892;2022-10-20T02:58:12;7.37;;;4.77;;
16693;SDS011;39538;52.196;9.892;2022-10-20T03:00:39;6.43;;;5.33;;
16693;SDS011;39538;52.196;9.892;2022-10-20T03:03:06;5.13;;;4.67;;
16693;SDS011;39538;52.196;9.892;2022-10-20T03:05:37;5.53;;;5.03;;
16693;SDS011;39538;52.196;9.892;2022-10-20T03:08:04;7.17;;;4.50;;
16693;SDS011;39538;52.196;9.892;2022-10-20T03:10:30;6.17;;;4.87;;
16693;SDS011;39538;52.196;9.892;2022-10-20T03:12:57;5.77;;;5.30;;
16693;SDS011;39538;52.196;9.892;2022-10-20T03:15:23;6.93;;;5.10;;
16693;SDS011;39538;52.196;9.892;2022-10-20T03:17:50;6.33;;;5.27;;
16693;SDS011;39538;52.196;9.892;2022-10-20T03:20:18;5.77;;;5.27;;
16693;SDS011;39538;52.196;9.892;2022-10-20T03:22:45;6.33;;;5.27;;
16693;SDS011;39538;52.196;9.892;2022-10-20T03:25:11;7.93;;;5.67;;
16693;SDS011;39538;52.196;9.892;2022-10-20T03:27:38;8.73;;;5.57;;
16693;SDS011;39538;52.196;9.892;2022-10-20T03:30:05;5.93;;;5.17;;
16693;SDS011;39538;52.196;9.892;2022-10-20T03:32:32;12.17;;;6.10;;
16693;SDS011;39538;52.196;9.892;2022-10-20T03:34:58;8.93;;;5.03;;
16693;SDS011;39538;52.196;9.892;2022-10-20T03:37:26;14.97;;;5.30;;
16693;SDS011;39538;52.196;9.892;2022-10-20T03:39:54;6.00;;;5.47;;
16693;SDS011;39538;52.196;9.892;2022-10-20T03:42:21;5.87;;;5.33;;
16693;SDS011;39538;52.196;9.892;2022-10-20T03:44:47;16.67;;;5.20;;
16693;SDS011;39538;52.196;9.892;2022-10-20T03:47:14;7.37;;;5.27;;
16693;SDS011;39538;52.196;9.892;2022-10-20T03:49:40;5.97;;;5.47;;
16693;SDS011;39538;52.196;9.892;2022-10-20T03:52:07;7.77;;;5.07;;
16693;SDS011;39538;52.196;9.892;2022-10-20T03:54:35;5.63;;;5.13;;
16693;SDS011;39538;52.196;9.892;2022-10-20T03:57:02;5.17;;;4.60;;
16693;SDS011;39538;52.196;9.892;2022-10-20T03:59:29;6.17;;;5.57;;
16693;SDS011;39538;52.196;9.892;2022-10-20T04:01:55;6.47;;;5.97;;
16693;SDS011;39538;52.196;9.892;2022-10-20T04:04:22;5.07;;;4.17;;
16693;SDS011;39538;52.196;9.892;2022-10-20T04:06:48;8.73;;;4.57;;
16693;SDS011;39538;52.196;9.892;2022-10-20T04:09:15;5.37;;;4.40;;
16693;SDS011;39538;52.196;9.892;2022-10-20T04:11:43;6.20;;;4.10;;
16693;SDS011;39538;52.196;9.892;2022-10-20T04:14:10;8.43;;;4.60;;
16693;SDS011;39538;52.196;9.892;2022-10-20T04:16:36;4.50;;;4.20;;
16693;SDS011;39538;52.196;9.892;2022-10-20T04:19:03;4.60;;;4.10;;
16693;SDS011;39538;52.196;9.892;2022-10-20T04:21:30;4.47;;;3.90;;
16693;SDS011;39538;52.196;9.892;2022-10-20T04:23:56;6.03;;;3.63;;
16693;SDS011;39538;52.196;9.892;2022-10-20T04:26:23;4.70;;;4.30;;
16693;SDS011;39538;52.196;9.892;2022-10-20T04:28:51;5.23;;;3.83;;
16693;SDS011;39538;52.196;9.892;2022-10-20T04:31:17;4.53;;;4.13;;
16693;SDS011;39538;52.196;9.892;2022-10-20T04:33:44;4.87;;;3.97;;
16693;SDS011;39538;52.196;9.892;2022-10-20T04:36:11;5.83;;;4.33;;
16693;SDS011;39538;52.196;9.892;2022-10-20T04:38:39;6.57;;;4.93;;
16693;SDS011;39538;52.196;9.892;2022-10-20T04:41:05;8.17;;;4.67;;
16693;SDS011;39538;52.196;9.892;2022-10-20T04:43:32;7.63;;;4.53;;
16693;SDS011;39538;52.196;9.892;2022-10-20T04:46:01;4.40;;;3.77;;
16693;SDS011;39538;52.196;9.892;2022-10-20T04:48:29;7.67;;;4.93;;
16693;SDS011;39538;52.196;9.892;2022-10-20T04:50:59;6.03;;;4.80;;
16693;SDS011;39538;52.196;9.892;2022-10-20T04:53:27;9.17;;;5.20;;
16693;SDS011;39538;52.196;9.892;2022-10-20T04:55:54;5.00;;;4.50;;
16693;SDS011;39538;52.196;9.892;2022-10-20T04:58:21;4.50;;;4.10;;
16693;SDS011;39538;52.196;9.892;2022-10-20T05:00:47;9.23;;;5.03;;
16693;SDS011;39538;52.196;9.892;2022-10-20T05:03:15;6.03;;;3.70;;
16693;SDS011;39538;52.196;9.892;2022-10-20T05:05:43;5.53;;;3.30;;
16693;SDS011;39538;52.196;9.892;2022-10-20T05:08:09;4.57;;;3.70;;
16693;SDS011;39538;52.196;9.892;2022-10-20T05:10:36;4.60;;;3.93;;
16693;SDS011;39538;52.196;9.892;2022-10-20T05:13:03;3.60;;;2.97;;
16693;SDS011;39538;52.196;9.892;2022-10-20T05:15:29;12.30;;;3.80;;
16693;SDS011;39538;52.196;9.892;2022-10-20T05:17:56;4.13;;;3.67;;
16693;SDS011;39538;52.196;9.892;2022-10-20T05:20:24;3.77;;;3.47;;
16693;SDS011;39538;52.196;9.892;2022-10-20T05:22:50;4.83;;;4.33;;
16693;SDS011;39538;52.196;9.892;2022-10-20T05:25:17;5.70;;;4.80;;
16693;SDS011;39538;52.196;9.892;2022-10-20T05:27:43;5.63;;;4.77;;
16693;SDS011;39538;52.196;9.892;2022-10-20T05:30:10;4.07;;;3.77;;
16693;SDS011;39538;52.196;9.892;2022-10-20T05:32:37;4.30;;;4.00;;
16693;SDS011;39538;52.196;9.892;2022-10-20T05:35:03;4.73;;;4.00;;
16693;SDS011;39538;52.196;9.892;2022-10-20T05:37:32;20.83;;;4.60;;
16693;SDS011;39538;52.196;9.892;2022-10-20T05:39:59;6.50;;;4.03;;
16693;SDS011;39538;52.196;9.892;2022-10-20T05:42:27;6.33;;;3.97;;
16693;SDS011;39538;52.196;9.892;2022-10-20T05:44:54;8.07;;;5.47;;
16693;SDS011;39538;52.196;9.892;2022-10-20T05:47:21;5.17;;;4.80;;
16693;SDS011;39538;52.196;9.892;2022-10-20T05:49:47;5.37;;;4.90;;
16693;SDS011;39538;52.196;9.892;2022-10-20T05:52:14;4.83;;;4.37;;
16693;SDS011;39538;52.196;9.892;2022-10-20T05:54:42;6.00;;;4.93;;
16693;SDS011;39538;52.196;9.892;2022-10-20T05:57:08;5.87;;;5.37;;
16693;SDS011;39538;52.196;9.892;2022-10-20T05:59:35;5.50;;;5.07;;
16693;SDS011;39538;52.196;9.892;2022-10-20T06:02:01;5.97;;;5.40;;
16693;SDS011;39538;52.196;9.892;2022-10-20T06:04:29;6.77;;;6.10;;
16693;SDS011;39538;52.196;9.892;2022-10-20T06:06:56;6.07;;;5.00;;
16693;SDS011;39538;52.196;9.892;2022-10-20T06:09:22;11.43;;;5.80;;
16693;SDS011;39538;52.196;9.892;2022-10-20T06:11:50;6.00;;;4.77;;
16693;SDS011;39538;52.196;9.892;2022-10-20T06:14:17;10.43;;;5.00;;
16693;SDS011;39538;52.196;9.892;2022-10-20T06:16:48;5.27;;;4.77;;
16693;SDS011;39538;52.196;9.892;2022-10-20T06:19:15;6.67;;;5.33;;
16693;SDS011;39538;52.196;9.892;2022-10-20T06:21:41;5.87;;;5.40;;
16693;SDS011;39538;52.196;9.892;2022-10-20T06:24:08;6.97;;;5.83;;
16693;SDS011;39538;52.196;9.892;2022-10-20T06:26:35;7.07;;;5.33;;
16693;SDS011;39538;52.196;9.892;2022-10-20T06:29:05;19.97;;;7.33;;
16693;SDS011;39538;52.196;9.892;2022-10-20T06:31:34;8.07;;;6.10;;
16693;SDS011;39538;52.196;9.892;2022-10-20T06:34:03;8.67;;;7.77;;
16693;SDS011;39538;52.196;9.892;2022-10-20T06:36:30;6.97;;;5.13;;
16693;SDS011;39538;52.196;9.892;2022-10-20T06:39:00;58.47;;;8.77;;
16693;SDS011;39538;52.196;9.892;2022-10-20T06:41:28;8.70;;;5.70;;
16693;SDS011;39538;52.196;9.892;2022-10-20T06:43:55;7.57;;;6.50;;
16693;SDS011;39538;52.196;9.892;2022-10-20T06:46:25;6.00;;;4.83;;
16693;SDS011;39538;52.196;9.892;2022-10-20T06:48:54;6.77;;;5.27;;
16693;SDS011;39538;52.196;9.892;2022-10-20T06:51:21;8.03;;;6.23;;
16693;SDS011;39538;52.196;9.892;2022-10-20T06:53:48;5.27;;;4.77;;
16693;SDS011;39538;52.196;9.892;2022-10-20T06:56:16;5.47;;;4.97;;
16693;SDS011;39538;52.196;9.892;2022-10-20T06:58:45;8.57;;;6.50;;
16693;SDS011;39538;52.196;9.892;2022-10-20T07:01:15;8.03;;;4.97;;
16693;SDS011;39538;52.196;9.892;2022-10-20T07:03:45;9.00;;;6.67;;
16693;SDS011;39538;52.196;9.892;2022-10-20T07:06:14;5.00;;;4.50;;
16693;SDS011;39538;52.196;9.892;2022-10-20T07:08:42;6.97;;;6.33;;
16693;SDS011;39538;52.196;9.892;2022-10-20T07:11:10;6.93;;;6.23;;
16693;SDS011;39538;52.196;9.892;2022-10-20T07:13:38;7.20;;;5.33;;
16693;SDS011;39538;52.196;9.892;2022-10-20T07:16:06;5.93;;;5.43;;
16693;SDS011;39538;52.196;9.892;2022-10-20T07:18:35;11.77;;;5.87;;
16693;SDS011;39538;52.196;9.892;2022-10-20T07:21:04;8.03;;;5.50;;
16693;SDS011;39538;52.196;9.892;2022-10-20T07:23:32;6.57;;;4.97;;
16693;SDS011;39538;52.196;9.892;2022-10-20T07:25:59;7.33;;;6.73;;
16693;SDS011;39538;52.196;9.892;2022-10-20T07:28:27;5.57;;;5.07;;
16693;SDS011;39538;52.196;9.892;2022-10-20T07:30:53;9.03;;;6.17;;
16693;SDS011;39538;52.196;9.892;2022-10-20T07:33:20;6.47;;;5.97;;
16693;SDS011;39538;52.196;9.892;2022-10-20T07:35:47;5.60;;;5.10;;
16693;SDS011;39538;52.196;9.892;2022-10-20T07:38:15;10.97;;;7.97;;
16693;SDS011;39538;52.196;9.892;2022-10-20T07:40:42;6.97;;;6.27;;
16693;SDS011;39538;52.196;9.892;2022-10-20T07:43:09;7.90;;;7.17;;
16693;SDS011;39538;52.196;9.892;2022-10-20T07:45:35;7.17;;;5.77;;
16693;SDS011;39538;52.196;9.892;2022-10-20T07:48:02;8.50;;;5.50;;
16693;SDS011;39538;52.196;9.892;2022-10-20T07:50:31;5.23;;;4.83;;
16693;SDS011;39538;52.196;9.892;2022-10-20T07:52:58;7.47;;;4.87;;
16693;SDS011;39538;52.196;9.892;2022-10-20T07:55:25;5.20;;;4.60;;
16693;SDS011;39538;52.196;9.892;2022-10-20T07:57:52;4.63;;;4.33;;
16693;SDS011;39538;52.196;9.892;2022-10-20T08:00:19;5.07;;;4.50;;
16693;SDS011;39538;52.196;9.892;2022-10-20T08:02:45;4.70;;;4.30;;
16693;SDS011;39538;52.196;9.892;2022-10-20T08:05:12;6.07;;;5.47;;
16693;SDS011;39538;52.196;9.892;2022-10-20T08:07:39;5.33;;;4.97;;
16693;SDS011;39538;52.196;9.892;2022-10-20T08:10:05;4.87;;;4.07;;
16693;SDS011;39538;52.196;9.892;2022-10-20T08:12:34;4.60;;;4.20;;
16693;SDS011;39538;52.196;9.892;2022-10-20T08:15:01;7.80;;;3.60;;
16693;SDS011;39538;52.196;9.892;2022-10-20T08:17:28;9.03;;;3.77;;
16693;SDS011;39538;52.196;9.892;2022-10-20T08:19:54;4.10;;;3.80;;
16693;SDS011;39538;52.196;9.892;2022-10-20T08:22:21;4.73;;;3.60;;
16693;SDS011;39538;52.196;9.892;2022-10-20T08:24:48;3.50;;;3.20;;
16693;SDS011;39538;52.196;9.892;2022-10-20T08:27:14;13.40;;;4.00;;
16693;SDS011;39538;52.196;9.892;2022-10-20T08:29:42;3.60;;;3.30;;
16693;SDS011;39538;52.196;9.892;2022-10-20T08:32:09;5.90;;;3.13;;
16693;SDS011;39538;52.196;9.892;2022-10-20T08:34:37;5.67;;;4.17;;
16693;SDS011;39538;52.196;9.892;2022-10-20T08:37:03;4.03;;;3.63;;
16693;SDS011;39538;52.196;9.892;2022-10-20T08:39:30;4.57;;;3.33;;
16693;SDS011;39538;52.196;9.892;2022-10-20T08:41:57;4.27;;;3.87;;
16693;SDS011;39538;52.196;9.892;2022-10-20T08:44:26;4.03;;;3.63;;
16693;SDS011;39538;52.196;9.892;2022-10-20T08:46:56;4.07;;;3.70;;
16693;SDS011;39538;52.196;9.892;2022-10-20T08:49:26;3.87;;;3.57;;
16693;SDS011;39538;52.196;9.892;2022-10-20T08:51:56;6.23;;;4.00;;
16693;SDS011;39538;52.196;9.892;2022-10-20T08:54:23;3.97;;;3.50;;
16693;SDS011;39538;52.196;9.892;2022-10-20T08:56:50;4.20;;;3.13;;
16693;SDS011;39538;52.196;9.892;2022-10-20T08:59:20;3.93;;;3.63;;
16693;SDS011;39538;52.196;9.892;2022-10-20T09:01:51;4.23;;;3.83;;
16693;SDS011;39538;52.196;9.892;2022-10-20T09:04:21;4.73;;;3.77;;
16693;SDS011;39538;52.196;9.892;2022-10-20T09:06:51;6.47;;;3.97;;
16693;SDS011;39538;52.196;9.892;2022-10-20T09:09:22;4.30;;;4.00;;
16693;SDS011;39538;52.196;9.892;2022-10-20T09:11:50;5.13;;;3.47;;
16693;SDS011;39538;52.196;9.892;2022-10-20T09:14:21;4.40;;;4.00;;
16693;SDS011;39538;52.196;9.892;2022-10-20T09:16:47;3.27;;;3.07;;
16693;SDS011;39538;52.196;9.892;2022-10-20T09:19:15;3.97;;;3.00;;
16693;SDS011;39538;52.196;9.892;2022-10-20T09:21:45;6.60;;;3.20;;
16693;SDS011;39538;52.196;9.892;2022-10-20T09:24:15;7.43;;;4.70;;
16693;SDS011;39538;52.196;9.892;2022-10-20T09:26:44;7.00;;;3.50;;
16693;SDS011;39538;52.196;9.892;2022-10-20T09:29:14;3.60;;;3.10;;
16693;SDS011;39538;52.196;9.892;2022-10-20T09:31:42;5.07;;;3.10;;
16693;SDS011;39538;52.196;9.892;2022-10-20T09:34:19;3.33;;;3.03;;
16693;SDS011;39538;52.196;9.892;2022-10-20T09:36:50;3.53;;;3.20;;
16693;SDS011;39538;52.196;9.892;2022-10-20T09:39:21;5.70;;;5.00;;
16693;SDS011;39538;52.196;9.892;2022-10-20T09:41:51;4.27;;;3.80;;
16693;SDS011;39538;52.196;9.892;2022-10-20T09:44:26;7.93;;;2.67;;
16693;SDS011;39538;52.196;9.892;2022-10-20T09:46:53;4.93;;;3.13;;
16693;SDS011;39538;52.196;9.892;2022-10-20T09:49:23;3.97;;;2.90;;
16693;SDS011;39538;52.196;9.892;2022-10-20T09:51:55;9.97;;;4.93;;
16693;SDS011;39538;52.196;9.892;2022-10-20T09:54:23;3.07;;;2.87;;
16693;SDS011;39538;52.196;9.892;2022-10-20T09:56:51;7.50;;;3.43;;
16693;SDS011;39538;52.196;9.892;2022-10-20T09:59:19;3.33;;;3.03;;
16693;SDS011;39538;52.196;9.892;2022-10-20T10:01:52;3.30;;;3.00;;
16693;SDS011;39538;52.196;9.892;2022-10-20T10:04:29;3.83;;;3.60;;
16693;SDS011;39538;52.196;9.892;2022-10-20T10:06:58;3.63;;;3.33;;
16693;SDS011;39538;52.196;9.892;2022-10-20T10:09:26;4.37;;;3.57;;
16693;SDS011;39538;52.196;9.892;2022-10-20T10:11:57;5.13;;;3.80;;
16693;SDS011;39538;52.196;9.892;2022-10-20T10:14:25;11.40;;;3.97;;
16693;SDS011;39538;52.196;9.892;2022-10-20T10:16:53;4.17;;;3.17;;
16693;SDS011;39538;52.196;9.892;2022-10-20T10:19:21;3.97;;;3.47;;
16693;SDS011;39538;52.196;9.892;2022-10-20T10:21:52;3.63;;;3.20;;
16693;SDS011;39538;52.196;9.892;2022-10-20T10:24:27;4.83;;;3.27;;
16693;SDS011;39538;52.196;9.892;2022-10-20T10:27:17;3.53;;;3.23;;
16693;SDS011;39538;52.196;9.892;2022-10-20T10:29:46;6.43;;;4.20;;
16693;SDS011;39538;52.196;9.892;2022-10-20T10:32:13;3.33;;;3.03;;
16693;SDS011;39538;52.196;9.892;2022-10-20T10:34:42;4.60;;;3.27;;
16693;SDS011;39538;52.196;9.892;2022-10-20T10:37:33;4.10;;;3.70;;
16693;SDS011;39538;52.196;9.892;2022-10-20T10:40:03;4.90;;;3.20;;
16693;SDS011;39538;52.196;9.892;2022-10-20T10:42:43;3.37;;;3.03;;
16693;SDS011;39538;52.196;9.892;2022-10-20T10:45:17;3.83;;;3.53;;
16693;SDS011;39538;52.196;9.892;2022-10-20T10:50:52;6.83;;;3.50;;
16693;SDS011;39538;52.196;9.892;2022-10-20T10:53:26;3.13;;;2.40;;
16693;SDS011;39538;52.196;9.892;2022-10-20T10:56:04;3.57;;;3.23;;
16693;SDS011;39538;52.196;9.892;2022-10-20T10:58:41;6.83;;;3.17;;
16693;SDS011;39538;52.196;9.892;2022-10-20T11:01:17;4.20;;;3.50;;
16693;SDS011;39538;52.196;9.892;2022-10-20T11:04:00;3.40;;;3.10;;
16693;SDS011;39538;52.196;9.892;2022-10-20T11:06:40;2.73;;;2.53;;
16693;SDS011;39538;52.196;9.892;2022-10-20T11:09:16;3.27;;;3.07;;
16693;SDS011;39538;52.196;9.892;2022-10-20T11:12:01;3.47;;;3.17;;
16693;SDS011;39538;52.196;9.892;2022-10-20T11:14:46;4.27;;;3.57;;
16693;SDS011;39538;52.196;9.892;2022-10-20T11:17:26;4.80;;;4.33;;
16693;SDS011;39538;52.196;9.892;2022-10-20T11:20:07;3.30;;;3.00;;
16693;SDS011;39538;52.196;9.892;2022-10-20T11:22:43;6.03;;;4.20;;
16693;SDS011;39538;52.196;9.892;2022-10-20T11:25:20;3.90;;;2.83;;
16693;SDS011;39538;52.196;9.892;2022-10-20T11:27:58;4.10;;;3.80;;
16693;SDS011;39538;52.196;9.892;2022-10-20T11:30:25;4.13;;;3.63;;
16693;SDS011;39538;52.196;9.892;2022-10-20T11:32:54;3.97;;;3.60;;
16693;SDS011;39538;52.196;9.892;2022-10-20T11:35:30;5.40;;;2.57;;
16693;SDS011;39538;52.196;9.892;2022-10-20T11:38:11;6.73;;;2.97;;
16693;SDS011;39538;52.196;9.892;2022-10-20T11:40:42;4.03;;;3.70;;
16693;SDS011;39538;52.196;9.892;2022-10-20T11:43:15;4.70;;;3.10;;
16693;SDS011;39538;52.196;9.892;2022-10-20T11:45:48;2.73;;;2.53;;
16693;SDS011;39538;52.196;9.892;2022-10-20T11:48:21;4.27;;;3.30;;
16693;SDS011;39538;52.196;9.892;2022-10-20T11:50:55;5.50;;;2.53;;
16693;SDS011;39538;52.196;9.892;2022-10-20T11:53:53;3.77;;;2.73;;
16693;SDS011;39538;52.196;9.892;2022-10-20T11:59:36;2.73;;;2.40;;
16693;SDS011;39538;52.196;9.892;2022-10-20T12:02:26;3.97;;;3.20;;
16693;SDS011;39538;52.196;9.892;2022-10-20T12:05:19;8.10;;;3.33;;
16693;SDS011;39538;52.196;9.892;2022-10-20T12:08:12;5.00;;;3.73;;
16693;SDS011;39538;52.196;9.892;2022-10-20T12:10:48;3.30;;;3.07;;
16693;SDS011;39538;52.196;9.892;2022-10-20T12:13:23;4.77;;;3.73;;
16693;SDS011;39538;52.196;9.892;2022-10-20T12:16:00;3.43;;;3.13;;
16693;SDS011;39538;52.196;9.892;2022-10-20T12:18:27;3.73;;;3.43;;
16693;SDS011;39538;52.196;9.892;2022-10-20T12:20:56;4.17;;;3.30;;
16693;SDS011;39538;52.196;9.892;2022-10-20T12:29:53;6.77;;;3.40;;
16693;SDS011;39538;52.196;9.892;2022-10-20T12:32:23;4.27;;;3.87;;
16693;SDS011;39538;52.196;9.892;2022-10-20T12:38:12;7.50;;;3.70;;
16693;SDS011;39538;52.196;9.892;2022-10-20T12:40:44;4.13;;;3.67;;
16693;SDS011;39538;52.196;9.892;2022-10-20T12:43:23;8.47;;;3.37;;
16693;SDS011;39538;52.196;9.892;2022-10-20T12:45:55;8.13;;;3.43;;
16693;SDS011;39538;52.196;9.892;2022-10-20T12:48:25;4.40;;;3.47;;
16693;SDS011;39538;52.196;9.892;2022-10-20T12:50:52;3.40;;;3.10;;
16693;SDS011;39538;52.196;9.892;2022-10-20T12:53:28;4.10;;;3.73;;
16693;SDS011;39538;52.196;9.892;2022-10-20T12:55:56;2.93;;;2.57;;
16693;SDS011;39538;52.196;9.892;2022-10-20T12:58:28;2.77;;;2.57;;
16693;SDS011;39538;52.196;9.892;2022-10-20T13:01:04;4.57;;;2.67;;
16693;SDS011;39538;52.196;9.892;2022-10-20T13:03:36;3.20;;;3.00;;
16693;SDS011;39538;52.196;9.892;2022-10-20T13:09:19;4.63;;;3.70;;
16693;SDS011;39538;52.196;9.892;2022-10-20T13:11:54;7.10;;;3.10;;
16693;SDS011;39538;52.196;9.892;2022-10-20T13:14:26;3.00;;;2.73;;
16693;SDS011;39538;52.196;9.892;2022-10-20T13:17:00;3.63;;;2.63;;
16693;SDS011;39538;52.196;9.892;2022-10-20T13:19:43;4.70;;;3.27;;
16693;SDS011;39538;52.196;9.892;2022-10-20T13:25:04;2.93;;;2.57;;
16693;SDS011;39538;52.196;9.892;2022-10-20T13:27:38;3.13;;;2.77;;
16693;SDS011;39538;52.196;9.892;2022-10-20T13:30:05;4.47;;;3.23;;
16693;SDS011;39538;52.196;9.892;2022-10-20T13:32:35;4.27;;;2.43;;
16693;SDS011;39538;52.196;9.892;2022-10-20T13:35:09;7.93;;;4.87;;
16693;SDS011;39538;52.196;9.892;2022-10-20T13:37:46;4.20;;;3.90;;
16693;SDS011;39538;52.196;9.892;2022-10-20T13:40:21;2.40;;;2.20;;
16693;SDS011;39538;52.196;9.892;2022-10-20T13:43:00;2.97;;;2.63;;
16693;SDS011;39538;52.196;9.892;2022-10-20T13:45:37;3.47;;;2.30;;
16693;SDS011;39538;52.196;9.892;2022-10-20T13:48:25;4.53;;;3.00;;
16693;SDS011;39538;52.196;9.892;2022-10-20T13:51:08;4.27;;;2.77;;
16693;SDS011;39538;52.196;9.892;2022-10-20T13:53:39;2.60;;;1.80;;
16693;SDS011;39538;52.196;9.892;2022-10-20T13:56:17;3.93;;;2.90;;
16693;SDS011;39538;52.196;9.892;2022-10-20T13:58:56;2.83;;;2.20;;
16693;SDS011;39538;52.196;9.892;2022-10-20T14:01:24;3.30;;;1.97;;
16693;SDS011;39538;52.196;9.892;2022-10-20T14:03:52;2.50;;;2.20;;
16693;SDS011;39538;52.196;9.892;2022-10-20T14:06:33;4.83;;;4.00;;
16693;SDS011;39538;52.196;9.892;2022-10-20T14:09:08;3.87;;;2.87;;
16693;SDS011;39538;52.196;9.892;2022-10-20T14:11:37;6.47;;;2.63;;
16693;SDS011;39538;52.196;9.892;2022-10-20T14:14:05;6.53;;;4.60;;
16693;SDS011;39538;52.196;9.892;2022-10-20T14:16:38;2.53;;;2.33;;
16693;SDS011;39538;52.196;9.892;2022-10-20T14:19:05;3.20;;;2.93;;
16693;SDS011;39538;52.196;9.892;2022-10-20T14:21:41;2.23;;;2.03;;
16693;SDS011;39538;52.196;9.892;2022-10-20T14:24:11;3.87;;;2.63;;
16693;SDS011;39538;52.196;9.892;2022-10-20T14:26:41;5.10;;;2.07;;
16693;SDS011;39538;52.196;9.892;2022-10-20T14:29:09;2.60;;;2.40;;
16693;SDS011;39538;52.196;9.892;2022-10-20T14:31:39;2.40;;;2.20;;
16693;SDS011;39538;52.196;9.892;2022-10-20T14:34:14;2.73;;;2.27;;
16693;SDS011;39538;52.196;9.892;2022-10-20T14:36:48;6.37;;;3.97;;
16693;SDS011;39538;52.196;9.892;2022-10-20T14:39:20;4.23;;;2.63;;
16693;SDS011;39538;52.196;9.892;2022-10-20T14:41:55;3.60;;;2.87;;
16693;SDS011;39538;52.196;9.892;2022-10-20T14:44:24;4.70;;;2.53;;
16693;SDS011;39538;52.196;9.892;2022-10-20T14:46:54;1.87;;;1.63;;
16693;SDS011;39538;52.196;9.892;2022-10-20T14:49:23;4.17;;;2.30;;
16693;SDS011;39538;52.196;9.892;2022-10-20T14:51:55;3.03;;;2.67;;
16693;SDS011;39538;52.196;9.892;2022-10-20T14:54:24;2.80;;;2.37;;
16693;SDS011;39538;52.196;9.892;2022-10-20T14:56:56;2.20;;;1.77;;
16693;SDS011;39538;52.196;9.892;2022-10-20T14:59:25;2.50;;;1.60;;
16693;SDS011;39538;52.196;9.892;2022-10-20T15:01:57;2.03;;;1.83;;
16693;SDS011;39538;52.196;9.892;2022-10-20T15:04:28;3.53;;;1.90;;
16693;SDS011;39538;52.196;9.892;2022-10-20T15:07:03;1.70;;;1.60;;
16693;SDS011;39538;52.196;9.892;2022-10-20T15:09:33;2.40;;;1.87;;
16693;SDS011;39538;52.196;9.892;2022-10-20T15:12:04;2.50;;;2.30;;
16693;SDS011;39538;52.196;9.892;2022-10-20T15:14:32;3.63;;;1.73;;
16693;SDS011;39538;52.196;9.892;2022-10-20T15:16:59;2.67;;;2.07;;
16693;SDS011;39538;52.196;9.892;2022-10-20T15:19:27;1.80;;;1.70;;
16693;SDS011;39538;52.196;9.892;2022-10-20T15:22:00;2.23;;;1.70;;
16693;SDS011;39538;52.196;9.892;2022-10-20T15:24:34;2.60;;;2.40;;
16693;SDS011;39538;52.196;9.892;2022-10-20T15:27:01;3.23;;;1.87;;
16693;SDS011;39538;52.196;9.892;2022-10-20T15:29:28;3.50;;;2.10;;
16693;SDS011;39538;52.196;9.892;2022-10-20T15:31:56;2.87;;;2.67;;